METAR rapporter

 

EKAH - Tirstrup (civ/Mi, Denmark
Afstand fra stationen: SSV 25km
Opdateret: 01/06/2020 03:20
Klart
Klart
 Vind fra calm
Vind: Vindstille
Temperatur: 9°C
Dugpunkt: 7°C
Fugtighed: 87%
Barometer: 1029 hPa
Skydække: Klart
Sigtbarhed: 10 km
2020/06/01 01:20 EKAH 010120Z AUTO 00000KT 9999NDV NCD 09/07 Q1029
EKYT - Alborg, Denmark
Afstand fra stationen: NV 91km
Opdateret: 01/06/2020 03:20
Klart
Klart
 Vind fra Ø
Vind: Ø 7 km/h
Temperatur: 11°C
Dugpunkt: 7°C
Fugtighed: 77%
Barometer: 1029 hPa
Skydække: Klart
Sigtbarhed: 10 km
2020/06/01 01:20 EKYT 010120Z AUTO 09004KT 9999 NCD 11/07 Q1029
EKKA - Karup (dan-Afb), Denmark
Afstand fra stationen: V 107km
Opdateret: 01/06/2020 03:20
Klart
Klart
 Vind fra calm
Vind: Vindstille
Temperatur: 9°C
Dugpunkt: 6°C
Fugtighed: 82%
Barometer: 1028 hPa
Skydække: Klart
Sigtbarhed: 10 km
2020/06/01 01:20 EKKA 010120Z AUTO 00000KT 9999 NCD 09/06 Q1028
 
EKOD - Odense/Beldringe, Denmark
Afstand fra stationen: SSV 116km
Opdateret: 31/05/2020 17:50
Ikke opdateret
Klart
Klart
 Vind fra NØ
Vind: NØ 22 km/h
Temperatur: 19°C
Dugpunkt: 8°C
Fugtighed: 49%
Barometer: 1027 hPa
Oversigt: Klart
Sigtbarhed: Mere end 10 km
2020/05/31 15:50 EKOD 311550Z 05012KT 010V070 CAVOK 19/08 Q1027
EKBI - Billund Airport, Denmark
Afstand fra stationen: SV 134km
Opdateret: 01/06/2020 03:20
Klart
Klart
 Vind fra Ø
Vind: Ø 2 km/h
Temperatur: 6°C
Dugpunkt: 5°C
Fugtighed: 93%
Barometer: 1028 hPa
Skydække: Klart
Sigtbarhed: 10 km
2020/06/01 01:20 EKBI 010120Z AUTO 09001KT 9999 NCD 06/05 Q1028
EKCH - Copenhagen/Kastr, Denmark
Afstand fra stationen: SØ 148km
Opdateret: 01/06/2020 03:20
Klart
Klart
 Vind fra NØ
Vind: NØ 7 km/h
Temperatur: 11°C
Dugpunkt: 8°C
Fugtighed: 82%
Barometer: 1028 hPa
Skydække: Klart
Sigtbarhed: 10 km
2020/06/01 01:20 EKCH 010120Z AUTO 05004KT 9999 NCD 11/08 Q1028 NOSIG